createdAt,value
2018-08-25T00:00:52.639Z,78.14
2018-08-25T00:01:53.200Z,77.95
2018-08-25T00:02:53.771Z,77.86
2018-08-25T00:03:54.326Z,78.05
2018-08-25T00:04:54.877Z,77.95
2018-08-25T00:05:55.430Z,78.24
2018-08-25T00:06:55.969Z,77.95
2018-08-25T00:07:56.524Z,79.20
2018-08-25T00:08:57.074Z,78.72
2018-08-25T00:09:57.628Z,77.95
2018-08-25T00:10:58.179Z,79.00
2018-08-25T00:11:58.725Z,78.81
2018-08-25T00:12:59.277Z,78.24
2018-08-25T00:13:59.832Z,78.05
2018-08-25T00:15:00.386Z,77.86
2018-08-25T00:16:00.940Z,77.19
2018-08-25T00:17:01.491Z,77.86
2018-08-25T00:18:02.038Z,77.86
2018-08-25T00:19:02.590Z,77.76
2018-08-25T00:20:03.142Z,77.76
2018-08-25T00:21:03.695Z,77.67
2018-08-25T00:22:04.247Z,78.14
2018-08-25T00:23:04.792Z,77.86
2018-08-25T00:24:05.346Z,78.05
2018-08-25T00:25:05.897Z,77.86
2018-08-25T00:26:06.444Z,77.86
2018-08-25T00:27:06.998Z,77.95
2018-08-25T00:28:07.553Z,77.38
2018-08-25T00:29:08.104Z,77.86
2018-08-25T00:30:08.655Z,77.76
2018-08-25T00:31:09.214Z,77.76
2018-08-25T00:32:09.767Z,78.24
2018-08-25T00:33:10.320Z,77.95
2018-08-25T00:34:10.873Z,78.24
2018-08-25T00:35:11.428Z,78.91
2018-08-25T00:36:11.972Z,78.81
2018-08-25T00:37:12.524Z,78.14
2018-08-25T00:38:13.074Z,78.24
2018-08-25T00:39:13.621Z,78.14
2018-08-25T00:40:14.176Z,78.91
2018-08-25T00:41:14.726Z,78.24
2018-08-25T00:42:15.277Z,78.14
2018-08-25T00:43:15.822Z,78.05
2018-08-25T00:44:16.379Z,78.43
2018-08-25T00:45:16.929Z,78.63
2018-08-25T00:46:17.485Z,78.91
2018-08-25T00:47:18.035Z,79.20
2018-08-25T00:48:18.585Z,78.43
2018-08-25T00:49:19.137Z,78.72
2018-08-25T00:50:19.683Z,79.10
2018-08-25T00:51:20.238Z,79.39
2018-08-25T00:52:20.787Z,79.29
2018-08-25T00:53:21.335Z,80.06
2018-08-25T00:54:21.876Z,80.25
2018-08-25T00:55:22.429Z,79.49
2018-08-25T00:56:22.987Z,79.58
2018-08-25T00:57:23.554Z,79.49
2018-08-25T00:58:24.079Z,79.49
2018-08-25T00:59:24.667Z,79.49
2018-08-25T01:00:25.171Z,79.39
2018-08-25T01:01:25.723Z,79.68
2018-08-25T01:02:26.280Z,79.87
2018-08-25T01:03:26.828Z,79.68
2018-08-25T01:04:27.383Z,79.58
2018-08-25T01:05:27.935Z,79.58
2018-08-25T01:06:28.492Z,79.49
2018-08-25T01:07:29.046Z,79.68
2018-08-25T01:08:29.591Z,79.49
2018-08-25T01:09:30.144Z,79.49
2018-08-25T01:10:30.698Z,79.58
2018-08-25T01:11:31.253Z,79.10
2018-08-25T01:12:31.808Z,79.29
2018-08-25T01:13:32.361Z,79.58
2018-08-25T01:14:32.907Z,79.39
2018-08-25T01:15:33.509Z,79.58
2018-08-25T01:16:33.999Z,79.68
2018-08-25T01:17:34.553Z,79.20
2018-08-25T01:18:35.101Z,79.20
2018-08-25T01:19:35.652Z,79.20
2018-08-25T01:20:36.201Z,79.29
2018-08-25T01:21:36.752Z,79.20
2018-08-25T01:22:37.295Z,79.68
2018-08-25T01:23:37.849Z,80.06
2018-08-25T01:24:38.401Z,79.49
2018-08-25T01:25:38.953Z,79.49
2018-08-25T01:26:39.506Z,79.49
2018-08-25T01:27:40.055Z,79.29
2018-08-25T01:28:40.615Z,79.29
2018-08-25T01:29:41.166Z,79.68
2018-08-25T01:30:41.709Z,79.58
2018-08-25T01:31:42.265Z,79.96
2018-08-25T01:32:42.819Z,80.06
2018-08-25T01:33:43.368Z,79.96
2018-08-25T01:34:43.916Z,80.16
2018-08-25T01:35:44.468Z,79.87
2018-08-25T01:36:45.018Z,80.06
2018-08-25T01:37:45.559Z,79.58
2018-08-25T01:38:46.113Z,79.58
2018-08-25T01:39:46.666Z,79.77
2018-08-25T01:40:47.215Z,79.77
2018-08-25T01:41:47.769Z,79.96
2018-08-25T01:42:48.322Z,79.58
2018-08-25T01:43:48.877Z,79.96
2018-08-25T01:44:49.422Z,80.06
2018-08-25T01:45:49.978Z,79.77
2018-08-25T01:46:50.521Z,80.16
2018-08-25T01:47:51.084Z,79.96
2018-08-25T01:48:51.624Z,80.73
2018-08-25T01:49:52.177Z,80.63
2018-08-25T01:50:52.726Z,80.82
2018-08-25T01:51:53.278Z,81.02
2018-08-25T01:52:53.823Z,81.11
2018-08-25T01:53:54.375Z,81.21
2018-08-25T01:54:54.922Z,82.26
2018-08-25T01:55:55.474Z,82.45
2018-08-25T01:56:56.032Z,82.26
2018-08-25T01:57:56.578Z,83.22
2018-08-25T01:58:57.131Z,83.31
2018-08-25T01:59:57.677Z,83.22
2018-08-25T02:00:58.229Z,84.17
2018-08-25T02:01:58.775Z,84.27
2018-08-25T02:02:59.331Z,84.08
2018-08-25T02:03:59.892Z,83.94
2018-08-25T02:05:00.442Z,84.08
2018-08-25T02:06:00.985Z,84.27
2018-08-25T02:07:01.528Z,83.98
2018-08-25T02:08:02.084Z,84.27
2018-08-25T02:09:02.630Z,84.46
2018-08-25T02:10:03.180Z,84.46
2018-08-25T02:11:03.732Z,84.27
2018-08-25T02:12:04.284Z,84.46
2018-08-25T02:13:04.836Z,84.46
2018-08-25T02:14:05.380Z,84.75
2018-08-25T02:15:05.928Z,84.94
2018-08-25T02:16:06.482Z,84.84
2018-08-25T02:17:07.039Z,86.08
2018-08-25T02:18:07.587Z,87.23
2018-08-25T02:19:08.136Z,88.00
2018-08-25T02:20:08.686Z,87.90
2018-08-25T02:21:09.232Z,88.86
2018-08-25T02:22:09.779Z,89.01
2018-08-25T02:23:10.334Z,88.62
2018-08-25T02:24:10.885Z,89.24
2018-08-25T02:25:11.437Z,89.48
2018-08-25T02:26:11.989Z,89.77
2018-08-25T02:27:12.542Z,90.73
2018-08-25T02:28:13.121Z,90.53
2018-08-25T02:29:13.639Z,90.53
2018-08-25T02:30:14.187Z,91.11
2018-08-25T02:31:14.741Z,91.02
2018-08-25T02:32:15.292Z,91.30
2018-08-25T02:33:15.845Z,91.30
2018-08-25T02:34:16.396Z,92.54
2018-08-25T02:35:16.955Z,93.31
2018-08-25T02:36:17.502Z,93.60
2018-08-25T02:37:18.052Z,93.98
2018-08-25T02:38:18.607Z,94.36
2018-08-25T02:39:19.150Z,94.84
2018-08-25T02:40:19.694Z,93.93
2018-08-25T02:41:20.245Z,94.60
2018-08-25T02:42:20.800Z,95.17
2018-08-25T02:43:21.356Z,95.07
2018-08-25T02:44:21.908Z,95.75
2018-08-25T02:45:22.458Z,95.65
2018-08-25T02:46:23.008Z,95.75
2018-08-25T02:47:23.562Z,96.22
2018-08-25T02:48:24.111Z,96.70
2018-08-25T02:49:24.666Z,96.61
2018-08-25T02:50:25.207Z,96.32
2018-08-25T02:51:25.760Z,96.80
2018-08-25T02:52:26.303Z,96.51
2018-08-25T02:53:26.856Z,96.51
2018-08-25T02:54:27.409Z,96.99
2018-08-25T02:55:27.960Z,96.99
2018-08-25T02:56:28.520Z,96.99
2018-08-25T02:57:29.064Z,97.23
2018-08-25T02:58:29.616Z,97.61
2018-08-25T02:59:30.168Z,96.80
2018-08-25T03:00:30.717Z,96.84
2018-08-25T03:01:31.271Z,97.08
2018-08-25T03:02:31.823Z,96.99
2018-08-25T03:03:32.378Z,96.89
2018-08-25T03:04:32.932Z,97.28
2018-08-25T03:05:33.476Z,97.28
2018-08-25T03:06:34.029Z,98.04
2018-08-25T03:07:34.581Z,98.52
2018-08-25T03:08:35.132Z,98.66
2018-08-25T03:09:35.691Z,98.57
2018-08-25T03:10:36.238Z,98.94
2018-08-25T03:11:36.791Z,99.33
2018-08-25T03:12:37.340Z,99.52
2018-08-25T03:13:37.920Z,99.90
2018-08-25T03:14:38.448Z,99.99
2018-08-25T03:15:38.996Z,99.99
2018-08-25T03:16:39.548Z,99.99
2018-08-25T03:17:40.099Z,99.99
2018-08-25T03:18:40.652Z,99.99
2018-08-25T03:19:41.200Z,99.99
2018-08-25T03:20:41.753Z,99.99
2018-08-25T03:21:42.306Z,99.99
2018-08-25T03:22:42.858Z,99.99
2018-08-25T03:23:43.411Z,99.99
2018-08-25T03:24:43.961Z,99.99
2018-08-25T03:25:44.508Z,99.99
2018-08-25T03:26:45.057Z,99.99
2018-08-25T03:27:45.609Z,99.99
2018-08-25T03:28:46.161Z,99.99
2018-08-25T03:29:46.712Z,99.99
2018-08-25T03:30:47.265Z,99.99
2018-08-25T03:31:47.812Z,99.99
2018-08-25T03:32:48.369Z,99.99
2018-08-25T03:33:48.918Z,99.99
2018-08-25T03:34:49.471Z,99.99
2018-08-25T03:35:50.018Z,99.99
2018-08-25T03:36:50.567Z,99.99
2018-08-25T03:37:51.113Z,99.99
2018-08-25T03:38:51.656Z,99.99
2018-08-25T03:39:52.200Z,99.99
2018-08-25T03:40:52.745Z,99.99
2018-08-25T03:41:53.291Z,99.99
2018-08-25T03:42:53.844Z,99.99
2018-08-25T03:43:54.395Z,99.99
2018-08-25T03:44:54.945Z,99.99
2018-08-25T03:45:55.499Z,99.99
2018-08-25T03:46:56.053Z,99.99
2018-08-25T03:47:56.607Z,99.99
2018-08-25T03:48:57.158Z,99.99
2018-08-25T03:49:57.707Z,99.99
2018-08-25T03:50:58.263Z,99.99
2018-08-25T03:51:58.810Z,99.99
2018-08-25T03:52:59.353Z,99.99
2018-08-25T03:53:59.904Z,99.99
2018-08-25T03:55:00.449Z,99.99
2018-08-25T03:56:01.001Z,99.99
2018-08-25T03:57:01.552Z,99.99
2018-08-25T03:58:02.102Z,99.99
2018-08-25T03:59:02.658Z,99.99
2018-08-25T04:00:03.205Z,99.99
2018-08-25T04:01:03.750Z,99.99
2018-08-25T04:02:04.303Z,99.99
2018-08-25T04:03:04.848Z,99.99
2018-08-25T04:04:05.388Z,99.99
2018-08-25T04:05:05.940Z,99.99
2018-08-25T04:06:06.490Z,99.99
2018-08-25T04:07:07.046Z,99.99
2018-08-25T04:08:07.590Z,99.99
2018-08-25T04:09:08.145Z,99.99
2018-08-25T04:10:08.697Z,99.99
2018-08-25T04:11:09.248Z,99.99
2018-08-25T04:12:09.790Z,99.99
2018-08-25T04:13:10.344Z,99.99
2018-08-25T04:14:10.897Z,99.99
2018-08-25T04:15:11.448Z,99.99
2018-08-25T04:16:12.000Z,99.99
2018-08-25T04:17:12.555Z,99.99
2018-08-25T04:18:13.105Z,99.99
2018-08-25T04:19:13.650Z,99.99
2018-08-25T04:20:14.204Z,99.99
2018-08-25T04:21:14.749Z,99.99
2018-08-25T04:22:15.373Z,99.99
2018-08-25T04:23:15.848Z,99.99
2018-08-25T04:24:16.400Z,99.99
2018-08-25T04:25:16.954Z,99.99
2018-08-25T04:26:17.506Z,99.99
2018-08-25T04:27:18.061Z,99.99
2018-08-25T04:28:18.611Z,99.99
2018-08-25T04:29:19.183Z,99.99
2018-08-25T04:30:19.724Z,99.99
2018-08-25T04:31:20.275Z,99.99
2018-08-25T04:32:20.821Z,99.99
2018-08-25T04:33:21.378Z,99.99
2018-08-25T04:34:21.919Z,99.99
2018-08-25T04:35:22.473Z,99.99
2018-08-25T04:36:23.034Z,99.99
2018-08-25T04:37:23.583Z,99.99
2018-08-25T04:38:24.131Z,99.99
2018-08-25T04:39:24.677Z,99.99
2018-08-25T04:40:25.236Z,99.99
2018-08-25T04:41:25.842Z,99.99
2018-08-25T04:42:26.331Z,99.99
2018-08-25T04:43:26.889Z,99.99
2018-08-25T04:44:27.445Z,99.99
2018-08-25T04:45:28.001Z,99.99
2018-08-25T04:46:28.554Z,99.99
2018-08-25T04:47:29.101Z,99.99
2018-08-25T04:48:29.654Z,99.99
2018-08-25T04:49:30.202Z,99.99
2018-08-25T04:50:30.757Z,99.99
2018-08-25T04:51:31.310Z,99.99
2018-08-25T04:52:31.865Z,99.99
2018-08-25T04:53:32.418Z,99.99
2018-08-25T04:54:32.972Z,99.99
2018-08-25T04:55:33.526Z,99.99
2018-08-25T04:56:34.082Z,99.99
2018-08-25T04:57:34.633Z,99.99
2018-08-25T04:58:35.185Z,99.99
2018-08-25T04:59:35.744Z,99.99
2018-08-25T05:00:36.297Z,99.99
2018-08-25T05:01:36.846Z,99.99
2018-08-25T05:02:37.396Z,99.99
2018-08-25T05:03:37.950Z,99.99
2018-08-25T05:04:38.506Z,99.99
2018-08-25T05:05:39.063Z,99.99
2018-08-25T05:06:39.612Z,99.99
2018-08-25T05:07:40.226Z,99.99
2018-08-25T05:08:40.720Z,99.99
2018-08-25T05:09:41.274Z,99.99
2018-08-25T05:10:41.835Z,99.99
2018-08-25T05:11:42.385Z,99.99
2018-08-25T05:12:42.935Z,99.99
2018-08-25T05:13:43.490Z,99.99
2018-08-25T05:14:44.046Z,99.99
2018-08-25T05:15:44.603Z,99.99
2018-08-25T05:16:45.153Z,99.99
2018-08-25T05:17:45.705Z,99.99
2018-08-25T05:18:46.262Z,99.99
2018-08-25T05:19:46.811Z,99.99
2018-08-25T05:20:47.369Z,99.99
2018-08-25T05:21:47.954Z,99.99
2018-08-25T05:22:48.477Z,99.99
2018-08-25T05:23:49.035Z,99.99
2018-08-25T05:24:49.590Z,99.99
2018-08-25T05:25:50.147Z,99.99
2018-08-25T05:26:50.703Z,99.99
2018-08-25T05:27:51.257Z,99.99
2018-08-25T05:28:51.808Z,99.99
2018-08-25T05:29:52.364Z,99.99
2018-08-25T05:30:52.915Z,99.99
2018-08-25T05:31:53.469Z,99.99
2018-08-25T05:32:54.027Z,99.99
2018-08-25T05:33:54.591Z,99.99
2018-08-25T05:34:55.143Z,99.99
2018-08-25T05:35:55.692Z,99.99
2018-08-25T05:36:56.250Z,99.99
2018-08-25T05:37:56.805Z,99.99
2018-08-25T05:38:57.363Z,99.99
2018-08-25T05:39:57.924Z,99.99
2018-08-25T05:40:58.483Z,99.99
2018-08-25T05:41:59.040Z,99.99
2018-08-25T05:42:59.605Z,99.99
2018-08-25T05:44:00.153Z,99.99
2018-08-25T05:45:00.711Z,99.99
2018-08-25T05:46:01.262Z,99.99
2018-08-25T05:47:01.820Z,99.99
2018-08-25T05:48:02.378Z,99.99
2018-08-25T05:49:02.942Z,99.99
2018-08-25T05:50:03.497Z,99.99
2018-08-25T05:51:04.060Z,99.99
2018-08-25T05:52:04.618Z,99.99
2018-08-25T05:53:05.178Z,99.99
2018-08-25T05:54:05.738Z,99.99
2018-08-25T05:55:06.297Z,99.99
2018-08-25T05:56:06.856Z,99.99
2018-08-25T05:57:07.414Z,99.99
2018-08-25T05:58:08.021Z,99.99
2018-08-25T05:59:08.529Z,99.99
2018-08-25T06:00:09.081Z,99.99
2018-08-25T06:01:09.639Z,99.99
2018-08-25T06:02:10.197Z,99.99
2018-08-25T06:03:10.761Z,99.99
2018-08-25T06:04:11.320Z,99.99
2018-08-25T06:05:11.876Z,99.99
2018-08-25T06:06:12.428Z,99.99
2018-08-25T06:07:12.985Z,99.99
2018-08-25T06:08:13.534Z,99.99
2018-08-25T06:09:14.094Z,99.99
2018-08-25T06:10:14.654Z,99.99
2018-08-25T06:11:15.211Z,99.99
2018-08-25T06:12:15.766Z,99.99
2018-08-25T06:13:16.327Z,99.99
2018-08-25T06:14:16.883Z,99.99
2018-08-25T06:15:17.442Z,99.99
2018-08-25T06:16:17.990Z,99.99
2018-08-25T06:17:18.550Z,99.99
2018-08-25T06:18:19.108Z,99.99
2018-08-25T06:19:19.804Z,99.99
2018-08-25T06:20:20.223Z,99.99
2018-08-25T06:21:20.777Z,99.99
2018-08-25T06:22:21.336Z,99.99
2018-08-25T06:23:21.895Z,99.99
2018-08-25T06:24:22.458Z,99.99
2018-08-25T06:25:23.013Z,99.99
2018-08-25T06:26:23.572Z,99.99
2018-08-25T06:27:24.129Z,99.99
2018-08-25T06:28:24.682Z,99.99
2018-08-25T06:29:25.234Z,99.99
2018-08-25T06:30:25.794Z,99.99
2018-08-25T06:31:26.354Z,99.99
2018-08-25T06:32:26.912Z,99.99
2018-08-25T06:33:27.470Z,99.99
2018-08-25T06:34:28.022Z,99.99
2018-08-25T06:35:28.582Z,99.99
2018-08-25T06:36:29.188Z,99.99
2018-08-25T06:37:29.690Z,99.99
2018-08-25T06:38:30.241Z,99.99
2018-08-25T06:39:30.803Z,99.99
2018-08-25T06:40:31.362Z,99.99
2018-08-25T06:41:31.921Z,99.99
2018-08-25T06:42:32.512Z,99.99
2018-08-25T06:43:33.048Z,99.76
2018-08-25T06:44:33.594Z,99.24
2018-08-25T06:45:34.155Z,97.85
2018-08-25T06:46:34.721Z,97.08
2018-08-25T06:47:35.280Z,95.17
2018-08-25T06:48:35.834Z,94.36
2018-08-25T06:49:36.400Z,94.02
2018-08-25T06:50:36.965Z,94.12
2018-08-25T06:51:37.528Z,94.31
2018-08-25T06:52:38.090Z,94.65
2018-08-25T06:53:38.647Z,94.84
2018-08-25T06:54:39.204Z,95.12
2018-08-25T06:55:39.764Z,95.70
2018-08-25T06:56:40.325Z,96.03
2018-08-25T06:57:40.890Z,96.70
2018-08-25T06:58:41.452Z,96.99
2018-08-25T06:59:42.011Z,97.37
2018-08-25T07:00:42.565Z,96.51
2018-08-25T07:01:43.126Z,96.18
2018-08-25T07:02:43.687Z,96.56
2018-08-25T07:03:44.247Z,96.84
2018-08-25T07:04:44.802Z,95.17
2018-08-25T07:05:45.361Z,96.51
2018-08-25T07:06:45.928Z,96.61
2018-08-25T07:07:46.525Z,96.99
2018-08-25T07:08:47.071Z,96.89
2018-08-25T07:09:47.628Z,96.42
2018-08-25T07:10:48.190Z,96.80
2018-08-25T07:11:48.749Z,96.42
2018-08-25T07:12:49.309Z,96.61
2018-08-25T07:13:49.889Z,96.32
2018-08-25T07:14:50.452Z,96.42
2018-08-25T07:15:51.009Z,95.75
2018-08-25T07:16:51.574Z,95.65
2018-08-25T07:17:52.131Z,95.75
2018-08-25T07:18:52.718Z,95.84
2018-08-25T07:19:53.249Z,95.46
2018-08-25T07:20:53.810Z,95.98
2018-08-25T07:21:54.373Z,96.46
2018-08-25T07:22:54.922Z,96.42
2018-08-25T07:23:55.484Z,96.99
2018-08-25T07:24:56.044Z,96.32
2018-08-25T07:25:56.689Z,95.56
2018-08-25T07:26:57.160Z,95.17
2018-08-25T07:27:57.718Z,95.36
2018-08-25T07:28:58.272Z,96.32
2018-08-25T07:29:58.830Z,96.51
2018-08-25T07:30:59.385Z,96.70
2018-08-25T07:31:59.952Z,96.51
2018-08-25T07:33:00.549Z,96.51
2018-08-25T07:34:01.100Z,96.80
2018-08-25T07:35:01.658Z,96.22
2018-08-25T07:36:02.215Z,96.13
2018-08-25T07:37:02.785Z,96.61
2018-08-25T07:38:03.336Z,96.51
2018-08-25T07:39:03.889Z,96.99
2018-08-25T07:40:04.447Z,96.51
2018-08-25T07:41:05.006Z,96.42
2018-08-25T07:42:05.558Z,96.89
2018-08-25T07:43:06.113Z,96.42
2018-08-25T07:44:06.676Z,96.61
2018-08-25T07:45:07.256Z,96.46
2018-08-25T07:46:07.794Z,96.61
2018-08-25T07:47:08.352Z,96.61
2018-08-25T07:48:08.911Z,96.75
2018-08-25T07:49:09.470Z,94.89
2018-08-25T07:50:10.032Z,93.88
2018-08-25T07:51:10.591Z,94.55
2018-08-25T07:52:11.152Z,94.26
2018-08-25T07:53:11.707Z,93.88
2018-08-25T07:54:12.267Z,93.88
2018-08-25T07:55:12.825Z,93.50
2018-08-25T07:56:13.384Z,92.49
2018-08-25T07:57:13.946Z,89.67
2018-08-25T07:58:14.509Z,89.67
2018-08-25T07:59:15.188Z,89.14
2018-08-25T08:00:15.628Z,87.41
2018-08-25T08:01:16.191Z,87.70
2018-08-25T08:02:16.759Z,87.32
2018-08-25T08:03:17.316Z,87.03
2018-08-25T08:04:17.883Z,86.98
2018-08-25T08:05:18.444Z,85.25
2018-08-25T08:06:19.006Z,86.02
2018-08-25T08:07:19.569Z,85.21
2018-08-25T08:08:20.136Z,85.11
2018-08-25T08:09:20.693Z,85.01
2018-08-25T08:10:21.256Z,85.01
2018-08-25T08:11:21.816Z,84.44
2018-08-25T08:12:22.468Z,83.92
2018-08-25T08:13:22.933Z,84.68
2018-08-25T08:14:23.490Z,84.49
2018-08-25T08:15:24.048Z,84.34
2018-08-25T08:16:24.613Z,83.61
2018-08-25T08:17:25.175Z,82.46
2018-08-25T08:18:25.740Z,81.98
2018-08-25T08:19:26.305Z,80.64
2018-08-25T08:20:26.873Z,79.53
2018-08-25T08:21:27.435Z,79.72
2018-08-25T08:22:27.997Z,78.03
2018-08-25T08:23:28.556Z,77.42
2018-08-25T08:24:29.124Z,77.23
2018-08-25T08:25:29.678Z,78.67
2018-08-25T08:26:30.243Z,77.90
2018-08-25T08:27:30.807Z,78.19
2018-08-25T08:28:31.371Z,78.09
2018-08-25T08:29:31.927Z,78.15
2018-08-25T08:30:32.490Z,78.44
2018-08-25T08:31:33.055Z,78.63
2018-08-25T08:32:33.653Z,79.05
2018-08-25T08:33:34.173Z,77.86
2018-08-25T08:34:34.737Z,78.05
2018-08-25T08:35:35.302Z,78.09
2018-08-25T08:36:35.870Z,78.17
2018-08-25T08:37:36.435Z,77.11
2018-08-25T08:38:36.995Z,75.87
2018-08-25T08:39:37.670Z,76.21
2018-08-25T08:40:38.120Z,77.17
2018-08-25T08:41:38.678Z,77.36
2018-08-25T08:42:39.257Z,77.08
2018-08-25T08:43:39.807Z,77.51
2018-08-25T08:44:40.367Z,77.51
2018-08-25T08:45:40.930Z,77.09
2018-08-25T08:46:41.493Z,78.25
2018-08-25T08:47:42.050Z,77.29
2018-08-25T08:48:42.608Z,77.86
2018-08-25T08:49:46.813Z,77.29
2018-08-25T08:50:44.723Z,77.13
2018-08-25T08:51:45.288Z,76.21
2018-08-25T08:52:45.855Z,75.15
2018-08-25T08:53:46.415Z,75.82
2018-08-25T08:54:46.982Z,76.02
2018-08-25T08:55:47.555Z,76.98
2018-08-25T08:56:48.114Z,75.48
2018-08-25T08:57:48.672Z,75.00
2018-08-25T08:58:49.237Z,74.23
2018-08-25T08:59:49.805Z,74.68
2018-08-25T09:00:50.367Z,76.02
2018-08-25T09:01:50.930Z,76.12
2018-08-25T09:02:51.493Z,75.12
2018-08-25T09:03:52.058Z,75.21
2018-08-25T09:04:52.614Z,75.50
2018-08-25T09:05:53.181Z,76.37
2018-08-25T09:06:53.743Z,76.31
2018-08-25T09:07:54.304Z,74.96
2018-08-25T09:08:54.869Z,75.15
2018-08-25T09:09:55.436Z,74.87
2018-08-25T09:10:56.000Z,73.85
2018-08-25T09:11:56.661Z,73.31
2018-08-25T09:12:57.124Z,72.06
2018-08-25T09:13:57.690Z,71.58
2018-08-25T09:14:58.256Z,72.69
2018-08-25T09:15:58.821Z,72.41
2018-08-25T09:16:59.390Z,73.46
2018-08-25T09:17:59.944Z,73.56
2018-08-25T09:19:00.508Z,74.13
2018-08-25T09:20:01.092Z,74.71
2018-08-25T09:21:01.636Z,75.00
2018-08-25T09:22:02.204Z,75.73
2018-08-25T09:23:02.766Z,75.21
2018-08-25T09:24:03.330Z,75.50
2018-08-25T09:25:03.898Z,75.50
2018-08-25T09:26:04.462Z,75.40
2018-08-25T09:27:05.018Z,75.92
2018-08-25T09:28:05.582Z,75.21
2018-08-25T09:29:06.146Z,75.31
2018-08-25T09:30:06.707Z,76.14
2018-08-25T09:31:07.274Z,76.23
2018-08-25T09:32:07.832Z,76.62
2018-08-25T09:33:08.397Z,77.19
2018-08-25T09:34:08.963Z,77.09
2018-08-25T09:35:09.521Z,76.84
2018-08-25T09:36:10.105Z,75.98
2018-08-25T09:37:10.643Z,76.37
2018-08-25T09:38:11.208Z,75.92
2018-08-25T09:39:11.773Z,75.25
2018-08-25T09:40:12.338Z,75.45
2018-08-25T09:41:12.901Z,75.48
2018-08-25T09:42:13.466Z,75.48
2018-08-25T09:43:14.028Z,74.96
2018-08-25T09:44:14.592Z,75.45
2018-08-25T09:45:15.151Z,75.63
2018-08-25T09:46:15.713Z,75.06
2018-08-25T09:47:16.270Z,75.06
2018-08-25T09:48:16.833Z,75.60
2018-08-25T09:49:17.390Z,75.98
2018-08-25T09:50:17.945Z,75.89
2018-08-25T09:51:18.508Z,76.14
2018-08-25T09:52:19.071Z,76.90
2018-08-25T09:53:19.639Z,76.90
2018-08-25T09:54:20.190Z,77.33
2018-08-25T09:55:20.755Z,77.04
2018-08-25T09:56:21.316Z,76.12
2018-08-25T09:57:21.880Z,75.96
2018-08-25T09:58:22.432Z,74.52
2018-08-25T09:59:22.990Z,73.98
2018-08-25T10:00:23.552Z,73.21
2018-08-25T10:01:24.111Z,72.44
2018-08-25T10:02:24.673Z,72.48
2018-08-25T10:03:25.234Z,72.26
2018-08-25T10:04:25.823Z,70.43
2018-08-25T10:05:26.364Z,68.32
2018-08-25T10:06:26.928Z,68.13
2018-08-25T10:07:27.494Z,67.97
2018-08-25T10:08:28.061Z,66.07
2018-08-25T10:09:28.634Z,65.75
2018-08-25T10:10:29.201Z,66.97
2018-08-25T10:11:29.768Z,66.30
2018-08-25T10:12:30.337Z,67.32
2018-08-25T10:13:30.899Z,67.77
2018-08-25T10:14:31.463Z,68.15
2018-08-25T10:15:32.030Z,70.04
2018-08-25T10:16:32.650Z,71.58
2018-08-25T10:17:33.155Z,71.55
2018-08-25T10:18:33.720Z,71.83
2018-08-25T10:19:34.285Z,71.93
2018-08-25T10:20:34.849Z,72.37
2018-08-25T10:21:35.408Z,73.52
2018-08-25T10:22:35.971Z,74.39
2018-08-25T10:23:36.561Z,74.83
2018-08-25T10:24:37.102Z,75.12
2018-08-25T10:25:37.661Z,75.79
2018-08-25T10:26:38.225Z,75.50
2018-08-25T10:27:38.787Z,75.70
2018-08-25T10:28:39.353Z,75.60
2018-08-25T10:29:39.914Z,75.65
2018-08-25T10:30:40.477Z,76.46
2018-08-25T10:31:41.040Z,76.75
2018-08-25T10:32:41.602Z,76.17
2018-08-25T10:33:42.166Z,75.79
2018-08-25T10:34:42.720Z,75.79
2018-08-25T10:35:43.341Z,75.50
2018-08-25T10:36:43.842Z,75.50
2018-08-25T10:37:44.401Z,75.60
2018-08-25T10:38:44.961Z,75.98
2018-08-25T10:39:45.522Z,75.50
2018-08-25T10:40:46.085Z,75.79
2018-08-25T10:41:46.773Z,75.50
2018-08-25T10:42:47.210Z,75.79
2018-08-25T10:43:47.768Z,76.32
2018-08-25T10:44:48.322Z,78.15
2018-08-25T10:45:48.881Z,78.78
2018-08-25T10:46:49.444Z,80.32
2018-08-25T10:47:50.005Z,82.71
2018-08-25T10:48:50.568Z,82.67
2018-08-25T10:49:51.129Z,82.76
2018-08-25T10:50:51.741Z,83.92
2018-08-25T10:51:52.304Z,83.82
2018-08-25T10:52:52.864Z,83.44
2018-08-25T10:53:53.436Z,83.44
2018-08-25T10:54:53.980Z,83.44
2018-08-25T10:55:54.541Z,82.96
2018-08-25T10:56:55.103Z,82.00
2018-08-25T10:57:55.667Z,81.46
2018-08-25T10:58:56.228Z,80.03
2018-08-25T10:59:56.790Z,79.45
2018-08-25T11:00:57.505Z,78.72
2018-08-25T11:01:57.912Z,78.53
2018-08-25T11:02:58.474Z,77.00
2018-08-25T11:03:59.037Z,76.46
2018-08-25T11:04:59.602Z,75.35
2018-08-25T11:06:00.164Z,74.77
2018-08-25T11:07:00.730Z,73.85
2018-08-25T11:08:01.293Z,72.83
2018-08-25T11:09:01.864Z,71.96
2018-08-25T11:10:02.428Z,71.14
2018-08-25T11:11:02.992Z,70.40
2018-08-25T11:12:03.554Z,68.22
2018-08-25T11:13:04.121Z,67.68
2018-08-25T11:14:04.688Z,67.49
2018-08-25T11:15:05.253Z,65.85
2018-08-25T11:16:05.822Z,65.50
2018-08-25T11:17:06.387Z,64.89
2018-08-25T11:18:06.946Z,65.30
2018-08-25T11:19:07.515Z,63.95
2018-08-25T11:20:08.073Z,64.28
2018-08-25T11:21:08.641Z,63.41
2018-08-25T11:22:09.211Z,63.24
2018-08-25T11:23:09.777Z,62.66
2018-08-25T11:24:10.347Z,62.70
2018-08-25T11:25:10.914Z,61.64
2018-08-25T11:26:11.482Z,61.38
2018-08-25T11:27:12.051Z,60.80
2018-08-25T11:28:12.619Z,60.89
2018-08-25T11:29:13.198Z,60.51
2018-08-25T11:30:13.753Z,60.19
2018-08-25T11:31:14.322Z,60.45
2018-08-25T11:32:14.899Z,61.22
2018-08-25T11:33:15.460Z,61.22
2018-08-25T11:34:16.021Z,61.22
2018-08-25T11:35:16.590Z,61.58
2018-08-25T11:36:17.146Z,62.73
2018-08-25T11:37:17.777Z,62.63
2018-08-25T11:38:18.266Z,63.02
2018-08-25T11:39:18.832Z,63.31
2018-08-25T11:40:19.397Z,63.50
2018-08-25T11:41:19.963Z,63.38
2018-08-25T11:42:20.534Z,64.12
2018-08-25T11:43:21.085Z,64.69
2018-08-25T11:44:21.655Z,64.86
2018-08-25T11:45:22.212Z,64.76
2018-08-25T11:46:22.773Z,65.17
2018-08-25T11:47:23.340Z,65.56
2018-08-25T11:48:23.903Z,66.30
2018-08-25T11:49:24.462Z,66.00
2018-08-25T11:50:25.020Z,66.68
2018-08-25T11:51:25.585Z,67.51
2018-08-25T11:52:26.139Z,68.08
2018-08-25T11:53:26.704Z,69.40
2018-08-25T11:54:27.267Z,70.70
2018-08-25T11:55:27.829Z,73.83
2018-08-25T11:56:28.391Z,77.63
2018-08-25T11:57:28.955Z,79.80
2018-08-25T11:58:29.514Z,82.15
2018-08-25T11:59:30.066Z,83.73
2018-08-25T12:00:30.617Z,85.94
2018-08-25T12:01:31.181Z,87.71
2018-08-25T12:02:31.743Z,89.81
2018-08-25T12:03:32.463Z,91.20
2018-08-25T12:04:32.859Z,92.64
2018-08-25T12:05:33.420Z,93.69
2018-08-25T12:06:33.982Z,94.36
2018-08-25T12:07:34.548Z,94.26
2018-08-25T12:08:35.110Z,95.56
2018-08-25T12:09:35.716Z,95.65
2018-08-25T12:10:36.223Z,95.36
2018-08-25T12:11:36.781Z,95.36
2018-08-25T12:12:37.341Z,96.51
2018-08-25T12:13:37.900Z,96.89
2018-08-25T12:14:38.464Z,96.47
2018-08-25T12:15:39.016Z,96.89
2018-08-25T12:16:39.575Z,96.51
2018-08-25T12:17:40.131Z,97.04
2018-08-25T12:18:40.691Z,96.66
2018-08-25T12:19:41.253Z,96.99
2018-08-25T12:20:41.812Z,96.89
2018-08-25T12:21:42.374Z,96.08
2018-08-25T12:22:42.934Z,95.17
2018-08-25T12:23:43.500Z,94.17
2018-08-25T12:24:44.058Z,93.69
2018-08-25T12:25:44.618Z,93.63
2018-08-25T12:26:45.173Z,92.01
2018-08-25T12:27:45.735Z,91.91
2018-08-25T12:28:46.294Z,89.47
2018-08-25T12:29:46.854Z,89.56
2018-08-25T12:30:47.418Z,88.02
2018-08-25T12:31:47.973Z,88.17
2018-08-25T12:32:48.528Z,88.55
2018-08-25T12:33:49.090Z,87.88
2018-08-25T12:34:49.649Z,85.48
2018-08-25T12:35:50.212Z,86.63
2018-08-25T12:36:50.775Z,88.35
2018-08-25T12:37:51.338Z,87.44
2018-08-25T12:38:51.899Z,87.73
2018-08-25T12:39:52.454Z,86.77
2018-08-25T12:40:53.018Z,85.33
2018-08-25T12:41:53.582Z,86.47
2018-08-25T12:42:54.135Z,83.30
2018-08-25T12:43:54.702Z,82.14
2018-08-25T12:44:55.275Z,80.21
2018-08-25T12:45:55.832Z,81.63
2018-08-25T12:46:56.396Z,78.79
2018-08-25T12:47:56.961Z,76.57
2018-08-25T12:48:57.594Z,74.51
2018-08-25T12:49:58.083Z,75.44
2018-08-25T12:50:58.652Z,75.05
2018-08-25T12:51:59.208Z,72.74
2018-08-25T12:52:59.770Z,73.22
2018-08-25T12:54:00.326Z,73.15
2018-08-25T12:55:00.890Z,75.21
2018-08-25T12:56:01.453Z,74.19
2018-08-25T12:57:02.016Z,73.51
2018-08-25T12:58:02.634Z,74.86
2018-08-25T12:59:03.172Z,74.15
2018-08-25T13:00:03.707Z,74.69